createdAt,value
2022-09-22T06:14:47.130Z,7.91
2022-09-22T06:24:46.991Z,8.95
2022-09-22T06:34:47.085Z,8.03
2022-09-22T06:44:46.999Z,7.63
2022-09-22T06:54:47.120Z,8.26
2022-09-22T07:04:46.893Z,8.99
2022-09-22T07:14:47.176Z,9.48
2022-09-22T07:24:46.942Z,9.66
2022-09-22T07:34:47.045Z,10.73
2022-09-22T07:44:47.113Z,12.37
2022-09-22T07:54:47.283Z,12.84
2022-09-22T08:04:47.525Z,11.77
2022-09-22T08:14:47.443Z,12.98
2022-09-22T08:24:47.523Z,12.98
2022-09-22T08:34:47.300Z,14.67
2022-09-22T08:44:47.385Z,13.87
2022-09-22T08:54:47.515Z,14.24
2022-09-22T09:04:47.469Z,15.09
2022-09-22T09:14:47.564Z,14.93
2022-09-22T09:34:48.183Z,15.03
2022-09-22T09:44:48.282Z,14.92
2022-09-22T09:54:47.612Z,16.46
2022-09-22T10:04:47.734Z,17.01
2022-09-22T10:14:47.449Z,16.85
2022-09-22T10:24:47.744Z,17.07
2022-09-22T10:34:47.615Z,18.16
2022-09-22T10:44:49.038Z,16.56
2022-09-22T10:54:47.573Z,16.99
2022-09-22T11:04:47.708Z,18.16
2022-09-22T11:14:47.663Z,18.24
2022-09-22T11:24:47.664Z,16.74
2022-09-22T11:34:47.448Z,17.52
2022-09-22T11:44:47.469Z,17.72
2022-09-22T11:54:47.339Z,17.33
2022-09-22T12:04:48.505Z,17.20
2022-09-22T12:14:47.541Z,17.60
2022-09-22T12:24:47.511Z,17.54
2022-09-22T12:34:47.526Z,16.98
2022-09-22T12:44:47.548Z,17.80
2022-09-22T12:54:47.617Z,17.98
2022-09-22T13:04:47.639Z,18.05
2022-09-22T13:14:47.555Z,17.99
2022-09-22T13:24:47.651Z,17.65
2022-09-22T13:34:47.865Z,18.08
2022-09-22T13:44:47.954Z,16.97
2022-09-22T13:54:48.025Z,16.30
2022-09-22T14:04:47.953Z,17.63
2022-09-22T14:14:47.918Z,17.75
2022-09-22T14:24:48.301Z,17.33
2022-09-22T14:34:47.981Z,17.85
2022-09-22T14:44:47.900Z,17.72
2022-09-22T14:54:47.975Z,17.73
2022-09-22T15:04:48.111Z,17.88
2022-09-22T15:14:47.874Z,17.49
2022-09-22T15:24:47.816Z,17.41
2022-09-22T15:34:47.869Z,17.79
2022-09-22T15:44:48.170Z,17.46
2022-09-22T15:54:48.518Z,17.28
2022-09-22T16:04:48.265Z,17.06
2022-09-22T16:14:48.177Z,16.70
2022-09-22T16:24:48.240Z,16.82
2022-09-22T16:34:48.259Z,16.42
2022-09-22T16:44:48.170Z,16.07
2022-09-22T16:54:48.224Z,15.46
2022-09-22T17:04:48.184Z,14.68
2022-09-22T17:14:48.212Z,13.86
2022-09-22T17:24:48.245Z,13.05
2022-09-22T17:34:48.268Z,13.04
2022-09-22T17:44:48.352Z,12.68
2022-09-22T17:54:48.305Z,11.95
2022-09-22T18:04:48.485Z,11.50
2022-09-22T18:14:48.330Z,10.79
2022-09-22T18:24:48.282Z,10.62
2022-09-22T18:34:48.331Z,10.56
2022-09-22T18:44:48.320Z,10.53
2022-09-22T18:54:48.463Z,10.24
2022-09-22T19:04:48.483Z,10.35
2022-09-22T19:14:48.323Z,10.23
